sensor_id;sensor_type;location;lat;lon;timestamp;pressure;altitude;pressure_sealevel;temperature;humidity
77431;BME280;66498;48.564;19.272;2023-11-22T00:02:21;97284.09;;;-1.03;100.00
77431;BME280;66498;48.564;19.272;2023-11-22T00:04:47;97294.41;;;-1.03;100.00
77431;BME280;66498;48.564;19.272;2023-11-22T00:07:13;97299.94;;;-1.24;100.00
77431;BME280;66498;48.564;19.272;2023-11-22T00:09:39;97299.91;;;-1.32;100.00
77431;BME280;66498;48.564;19.272;2023-11-22T00:12:06;97304.25;;;-1.32;100.00
77431;BME280;66498;48.564;19.272;2023-11-22T00:14:33;97307.38;;;-1.21;100.00
77431;BME280;66498;48.564;19.272;2023-11-22T00:17:01;97305.56;;;-1.28;100.00
77431;BME280;66498;48.564;19.272;2023-11-22T00:19:27;97314.78;;;-1.17;100.00
77431;BME280;66498;48.564;19.272;2023-11-22T00:21:54;97320.84;;;-0.58;100.00
77431;BME280;66498;48.564;19.272;2023-11-22T00:24:19;97312.34;;;-0.42;100.00
77431;BME280;66498;48.564;19.272;2023-11-22T00:26:46;97317.88;;;-0.80;100.00
77431;BME280;66498;48.564;19.272;2023-11-22T00:29:11;97323.72;;;-1.04;100.00
77431;BME280;66498;48.564;19.272;2023-11-22T00:31:38;97326.59;;;-1.07;100.00
77431;BME280;66498;48.564;19.272;2023-11-22T00:34:05;97319.91;;;-0.49;100.00
77431;BME280;66498;48.564;19.272;2023-11-22T00:36:32;97317.47;;;-0.59;100.00
77431;BME280;66498;48.564;19.272;2023-11-22T00:38:57;97320.16;;;-1.03;100.00
77431;BME280;66498;48.564;19.272;2023-11-22T00:41:23;97321.94;;;-1.03;100.00
77431;BME280;66498;48.564;19.272;2023-11-22T00:43:48;97329.66;;;-1.11;100.00
77431;BME280;66498;48.564;19.272;2023-11-22T00:46:14;97329.16;;;-1.15;100.00
77431;BME280;66498;48.564;19.272;2023-11-22T00:48:40;97326.59;;;-1.07;100.00
77431;BME280;66498;48.564;19.272;2023-11-22T00:51:05;97320.06;;;-0.93;100.00
77431;BME280;66498;48.564;19.272;2023-11-22T00:53:35;97312.81;;;-0.98;100.00
77431;BME280;66498;48.564;19.272;2023-11-22T00:56:02;97313.28;;;-0.52;100.00
77431;BME280;66498;48.564;19.272;2023-11-22T00:58:29;97310.81;;;-0.19;100.00
77431;BME280;66498;48.564;19.272;2023-11-22T01:00:55;97323.84;;;-0.20;100.00
77431;BME280;66498;48.564;19.272;2023-11-22T01:03:20;97319.84;;;-0.15;100.00
77431;BME280;66498;48.564;19.272;2023-11-22T01:05:47;97322.69;;;-0.34;100.00
77431;BME280;66498;48.564;19.272;2023-11-22T01:08:18;97310.00;;;-0.11;100.00
77431;BME280;66498;48.564;19.272;2023-11-22T01:10:44;97314.19;;;-0.10;100.00
77431;BME280;66498;48.564;19.272;2023-11-22T01:13:11;97315.78;;;-0.17;100.00
77431;BME280;66498;48.564;19.272;2023-11-22T01:15:41;97320.94;;;-0.17;100.00
77431;BME280;66498;48.564;19.272;2023-11-22T01:18:07;97320.47;;;-0.29;100.00
77431;BME280;66498;48.564;19.272;2023-11-22T01:20:34;97324.50;;;-0.18;100.00
77431;BME280;66498;48.564;19.272;2023-11-22T01:23:00;97324.03;;;-0.14;100.00
77431;BME280;66498;48.564;19.272;2023-11-22T01:25:25;97333.72;;;-0.16;100.00
77431;BME280;66498;48.564;19.272;2023-11-22T01:27:52;97336.97;;;-0.56;100.00
77431;BME280;66498;48.564;19.272;2023-11-22T01:30:19;97334.47;;;-0.32;100.00
77431;BME280;66498;48.564;19.272;2023-11-22T01:32:45;97332.38;;;-0.36;100.00
77431;BME280;66498;48.564;19.272;2023-11-22T01:35:10;97332.25;;;-0.27;100.00
77431;BME280;66498;48.564;19.272;2023-11-22T01:37:36;97331.88;;;-0.40;100.00
77431;BME280;66498;48.564;19.272;2023-11-22T01:40:03;97334.16;;;-0.37;100.00
77431;BME280;66498;48.564;19.272;2023-11-22T01:42:32;97322.69;;;-0.34;100.00
77431;BME280;66498;48.564;19.272;2023-11-22T01:44:58;97326.19;;;-0.52;100.00
77431;BME280;66498;48.564;19.272;2023-11-22T01:47:23;97319.41;;;-0.53;100.00
77431;BME280;66498;48.564;19.272;2023-11-22T01:49:49;97321.75;;;-0.33;100.00
77431;BME280;66498;48.564;19.272;2023-11-22T01:52:18;97331.66;;;0.12;100.00
77431;BME280;66498;48.564;19.272;2023-11-22T01:54:44;97334.19;;;-0.04;100.00
77431;BME280;66498;48.564;19.272;2023-11-22T01:57:11;97333.41;;;-0.05;100.00
77431;BME280;66498;48.564;19.272;2023-11-22T01:59:44;97339.19;;;-0.11;100.00
77431;BME280;66498;48.564;19.272;2023-11-22T02:02:11;97345.97;;;0.07;100.00
77431;BME280;66498;48.564;19.272;2023-11-22T02:04:36;97340.34;;;0.03;100.00
77431;BME280;66498;48.564;19.272;2023-11-22T02:07:02;97340.22;;;0.29;100.00
77431;BME280;66498;48.564;19.272;2023-11-22T02:09:27;97337.94;;;0.26;100.00
77431;BME280;66498;48.564;19.272;2023-11-22T02:11:53;97342.78;;;0.05;100.00
77431;BME280;66498;48.564;19.272;2023-11-22T02:14:18;97342.59;;;0.06;100.00
77431;BME280;66498;48.564;19.272;2023-11-22T02:16:45;97343.09;;;-0.07;100.00
77431;BME280;66498;48.564;19.272;2023-11-22T02:19:17;97347.59;;;-0.17;100.00
77431;BME280;66498;48.564;19.272;2023-11-22T02:21:44;97349.38;;;-0.09;100.00
77431;BME280;66498;48.564;19.272;2023-11-22T02:24:10;97355.34;;;-0.01;100.00
77431;BME280;66498;48.564;19.272;2023-11-22T02:26:35;97354.38;;;0.01;100.00
77431;BME280;66498;48.564;19.272;2023-11-22T02:29:02;97356.75;;;-0.14;100.00
77431;BME280;66498;48.564;19.272;2023-11-22T02:31:30;97360.97;;;-0.13;100.00
77431;BME280;66498;48.564;19.272;2023-11-22T02:33:55;97348.97;;;-0.31;100.00
77431;BME280;66498;48.564;19.272;2023-11-22T02:36:22;97363.00;;;-0.33;100.00
77431;BME280;66498;48.564;19.272;2023-11-22T02:38:48;97361.59;;;-0.19;100.00
77431;BME280;66498;48.564;19.272;2023-11-22T02:41:13;97368.38;;;-0.10;100.00
77431;BME280;66498;48.564;19.272;2023-11-22T02:43:39;97378.88;;;-0.04;100.00
77431;BME280;66498;48.564;19.272;2023-11-22T02:46:08;97381.16;;;0.08;100.00
77431;BME280;66498;48.564;19.272;2023-11-22T02:48:34;97380.34;;;-0.01;100.00
77431;BME280;66498;48.564;19.272;2023-11-22T02:50:59;97380.63;;;-0.12;100.00
77431;BME280;66498;48.564;19.272;2023-11-22T02:53:25;97388.06;;;-0.01;100.00
77431;BME280;66498;48.564;19.272;2023-11-22T02:55:52;97395.19;;;0.13;100.00
77431;BME280;66498;48.564;19.272;2023-11-22T02:58:21;97388.06;;;-0.01;100.00
77431;BME280;66498;48.564;19.272;2023-11-22T03:00:46;97393.34;;;-0.27;100.00
77431;BME280;66498;48.564;19.272;2023-11-22T03:03:12;97405.75;;;-0.22;100.00
77431;BME280;66498;48.564;19.272;2023-11-22T03:05:38;97408.28;;;-0.39;100.00
77431;BME280;66498;48.564;19.272;2023-11-22T03:08:03;97411.72;;;-0.30;100.00
77431;BME280;66498;48.564;19.272;2023-11-22T03:10:29;97416.19;;;-0.32;100.00
77431;BME280;66498;48.564;19.272;2023-11-22T03:12:57;97414.09;;;-0.37;100.00
77431;BME280;66498;48.564;19.272;2023-11-22T03:15:23;97417.75;;;-0.47;100.00
77431;BME280;66498;48.564;19.272;2023-11-22T03:17:50;97422.59;;;-0.44;100.00
77431;BME280;66498;48.564;19.272;2023-11-22T03:20:15;97425.84;;;-0.42;100.00
77431;BME280;66498;48.564;19.272;2023-11-22T03:22:41;97423.72;;;-0.47;100.00
77431;BME280;66498;48.564;19.272;2023-11-22T03:25:09;97426.50;;;-0.40;100.00
77431;BME280;66498;48.564;19.272;2023-11-22T03:27:36;97426.81;;;-0.35;100.00
77431;BME280;66498;48.564;19.272;2023-11-22T03:30:06;97430.59;;;-0.21;100.00
77431;BME280;66498;48.564;19.272;2023-11-22T03:32:40;97434.81;;;-0.12;100.00
77431;BME280;66498;48.564;19.272;2023-11-22T03:35:07;97434.38;;;-0.42;100.00
77431;BME280;66498;48.564;19.272;2023-11-22T03:37:34;97437.81;;;-0.67;100.00
77431;BME280;66498;48.564;19.272;2023-11-22T03:40:00;97443.69;;;-0.75;100.00
77431;BME280;66498;48.564;19.272;2023-11-22T03:42:27;97441.09;;;-0.83;100.00
77431;BME280;66498;48.564;19.272;2023-11-22T03:44:54;97437.06;;;-0.52;100.00
77431;BME280;66498;48.564;19.272;2023-11-22T03:47:20;97433.78;;;-0.28;100.00
77431;BME280;66498;48.564;19.272;2023-11-22T03:49:47;97434.06;;;-0.39;100.00
77431;BME280;66498;48.564;19.272;2023-11-22T03:52:18;97447.13;;;-0.40;100.00
77431;BME280;66498;48.564;19.272;2023-11-22T03:54:43;97450.81;;;-0.43;100.00
77431;BME280;66498;48.564;19.272;2023-11-22T03:57:09;97453.88;;;-0.47;100.00
77431;BME280;66498;48.564;19.272;2023-11-22T03:59:35;97459.47;;;-0.52;100.00
77431;BME280;66498;48.564;19.272;2023-11-22T04:02:02;97466.75;;;-0.47;100.00
77431;BME280;66498;48.564;19.272;2023-11-22T04:04:32;97462.22;;;-0.54;100.00
77431;BME280;66498;48.564;19.272;2023-11-22T04:06:57;97464.53;;;-0.34;100.00
77431;BME280;66498;48.564;19.272;2023-11-22T04:09:22;97463.69;;;-0.09;100.00
77431;BME280;66498;48.564;19.272;2023-11-22T04:11:49;97467.38;;;-0.19;100.00
77431;BME280;66498;48.564;19.272;2023-11-22T04:14:14;97468.66;;;-0.23;100.00
77431;BME280;66498;48.564;19.272;2023-11-22T04:16:41;97473.16;;;-0.26;100.00
77431;BME280;66498;48.564;19.272;2023-11-22T04:19:07;97476.19;;;0.04;100.00
77431;BME280;66498;48.564;19.272;2023-11-22T04:21:32;97484.25;;;0.09;100.00
77431;BME280;66498;48.564;19.272;2023-11-22T04:23:58;97483.66;;;-0.19;100.00
77431;BME280;66498;48.564;19.272;2023-11-22T04:26:24;97487.03;;;-0.18;100.00
77431;BME280;66498;48.564;19.272;2023-11-22T04:28:50;97486.25;;;-0.19;100.00
77431;BME280;66498;48.564;19.272;2023-11-22T04:31:16;97491.28;;;-0.43;100.00
77431;BME280;66498;48.564;19.272;2023-11-22T04:33:41;97486.03;;;-0.26;100.00
77431;BME280;66498;48.564;19.272;2023-11-22T04:36:07;97498.34;;;-0.45;100.00
77431;BME280;66498;48.564;19.272;2023-11-22T04:38:33;97503.88;;;-0.40;100.00
77431;BME280;66498;48.564;19.272;2023-11-22T04:40:59;97518.72;;;-0.34;100.00
77431;BME280;66498;48.564;19.272;2023-11-22T04:43:25;97524.16;;;-0.11;100.00
77431;BME280;66498;48.564;19.272;2023-11-22T04:45:52;97520.97;;;-0.05;100.00
77431;BME280;66498;48.564;19.272;2023-11-22T04:48:18;97524.13;;;-0.19;100.00
77431;BME280;66498;48.564;19.272;2023-11-22T04:50:45;97530.63;;;-0.07;100.00
77431;BME280;66498;48.564;19.272;2023-11-22T04:53:11;97538.59;;;-0.27;100.00
77431;BME280;66498;48.564;19.272;2023-11-22T04:55:36;97537.44;;;0.02;100.00
77431;BME280;66498;48.564;19.272;2023-11-22T04:58:02;97540.81;;;-0.32;100.00
77431;BME280;66498;48.564;19.272;2023-11-22T05:00:28;97539.25;;;-0.25;100.00
77431;BME280;66498;48.564;19.272;2023-11-22T05:02:56;97537.72;;;-0.09;100.00
77431;BME280;66498;48.564;19.272;2023-11-22T05:05:21;97542.53;;;-0.14;100.00
77431;BME280;66498;48.564;19.272;2023-11-22T05:07:47;97547.72;;;-0.40;100.00
77431;BME280;66498;48.564;19.272;2023-11-22T05:10:13;97563.28;;;-0.50;100.00
77431;BME280;66498;48.564;19.272;2023-11-22T05:12:40;97550.53;;;-0.52;100.00
77431;BME280;66498;48.564;19.272;2023-11-22T05:15:06;97558.34;;;-0.43;100.00
77431;BME280;66498;48.564;19.272;2023-11-22T05:17:34;97558.13;;;-0.50;100.00
77431;BME280;66498;48.564;19.272;2023-11-22T05:19:59;97565.31;;;-0.36;100.00
77431;BME280;66498;48.564;19.272;2023-11-22T05:22:25;97558.88;;;-0.32;100.00
77431;BME280;66498;48.564;19.272;2023-11-22T05:24:50;97573.59;;;-0.50;100.00
77431;BME280;66498;48.564;19.272;2023-11-22T05:27:17;97580.31;;;-0.57;100.00
77431;BME280;66498;48.564;19.272;2023-11-22T05:29:43;97580.03;;;-0.72;100.00
77431;BME280;66498;48.564;19.272;2023-11-22T05:32:09;97578.84;;;-0.60;100.00
77431;BME280;66498;48.564;19.272;2023-11-22T05:34:34;97575.81;;;-0.55;100.00
77431;BME280;66498;48.564;19.272;2023-11-22T05:37:00;97583.03;;;-0.59;100.00
77431;BME280;66498;48.564;19.272;2023-11-22T05:39:28;97593.47;;;-0.42;100.00
77431;BME280;66498;48.564;19.272;2023-11-22T05:41:55;97596.66;;;-0.66;100.00
77431;BME280;66498;48.564;19.272;2023-11-22T05:44:22;97609.03;;;-0.70;100.00
77431;BME280;66498;48.564;19.272;2023-11-22T05:46:47;97610.38;;;-0.66;100.00
77431;BME280;66498;48.564;19.272;2023-11-22T05:49:17;97611.34;;;-0.67;100.00
77431;BME280;66498;48.564;19.272;2023-11-22T05:51:44;97623.72;;;-0.70;100.00
77431;BME280;66498;48.564;19.272;2023-11-22T05:54:10;97627.00;;;-0.42;100.00
77431;BME280;66498;48.564;19.272;2023-11-22T05:56:39;97626.44;;;-0.90;100.00
77431;BME280;66498;48.564;19.272;2023-11-22T05:59:06;97630.78;;;-0.73;100.00
77431;BME280;66498;48.564;19.272;2023-11-22T06:01:31;97619.44;;;-0.80;100.00
77431;BME280;66498;48.564;19.272;2023-11-22T06:03:56;97623.41;;;-0.67;100.00
77431;BME280;66498;48.564;19.272;2023-11-22T06:06:22;97625.31;;;-0.69;100.00
77431;BME280;66498;48.564;19.272;2023-11-22T06:08:48;97635.13;;;-0.73;100.00
77431;BME280;66498;48.564;19.272;2023-11-22T06:11:14;97636.00;;;-0.82;100.00
77431;BME280;66498;48.564;19.272;2023-11-22T06:13:43;97649.50;;;-0.70;100.00
77431;BME280;66498;48.564;19.272;2023-11-22T06:16:09;97654.84;;;-0.82;100.00
77431;BME280;66498;48.564;19.272;2023-11-22T06:18:35;97652.41;;;-0.65;100.00
77431;BME280;66498;48.564;19.272;2023-11-22T06:21:06;97653.00;;;-0.72;100.00
77431;BME280;66498;48.564;19.272;2023-11-22T06:23:31;97659.50;;;-0.67;100.00
77431;BME280;66498;48.564;19.272;2023-11-22T06:25:57;97667.38;;;-0.51;100.00
77431;BME280;66498;48.564;19.272;2023-11-22T06:28:22;97667.97;;;-0.57;100.00
77431;BME280;66498;48.564;19.272;2023-11-22T06:30:48;97671.59;;;-0.50;100.00
77431;BME280;66498;48.564;19.272;2023-11-22T06:33:13;97675.66;;;-0.47;100.00
77431;BME280;66498;48.564;19.272;2023-11-22T06:35:39;97677.25;;;-0.64;100.00
77431;BME280;66498;48.564;19.272;2023-11-22T06:38:05;97676.72;;;-0.32;100.00
77431;BME280;66498;48.564;19.272;2023-11-22T06:40:31;97685.34;;;-0.41;100.00
77431;BME280;66498;48.564;19.272;2023-11-22T06:42:56;97687.19;;;-0.52;100.00
77431;BME280;66498;48.564;19.272;2023-11-22T06:45:22;97690.28;;;-0.48;100.00
77431;BME280;66498;48.564;19.272;2023-11-22T06:47:47;97691.94;;;-0.47;100.00
77431;BME280;66498;48.564;19.272;2023-11-22T06:50:13;97687.56;;;-0.46;100.00
77431;BME280;66498;48.564;19.272;2023-11-22T06:52:39;97687.47;;;-0.55;100.00
77431;BME280;66498;48.564;19.272;2023-11-22T06:55:06;97690.97;;;-0.64;100.00
77431;BME280;66498;48.564;19.272;2023-11-22T06:57:35;97692.78;;;-0.74;100.00
77431;BME280;66498;48.564;19.272;2023-11-22T07:00:01;97703.63;;;-0.70;100.00
77431;BME280;66498;48.564;19.272;2023-11-22T07:02:33;97700.16;;;-0.61;100.00
77431;BME280;66498;48.564;19.272;2023-11-22T07:05:01;97699.28;;;-0.70;100.00
77431;BME280;66498;48.564;19.272;2023-11-22T07:07:27;97698.25;;;-0.41;100.00
77431;BME280;66498;48.564;19.272;2023-11-22T07:09:53;97702.00;;;-0.18;100.00
77431;BME280;66498;48.564;19.272;2023-11-22T07:12:19;97701.25;;;-0.28;100.00
77431;BME280;66498;48.564;19.272;2023-11-22T07:14:45;97703.03;;;-0.29;100.00
77431;BME280;66498;48.564;19.272;2023-11-22T07:17:11;97707.56;;;-0.05;100.00
77431;BME280;66498;48.564;19.272;2023-11-22T07:19:36;97700.16;;;-0.26;100.00
77431;BME280;66498;48.564;19.272;2023-11-22T07:22:07;97704.66;;;-0.45;100.00
77431;BME280;66498;48.564;19.272;2023-11-22T07:24:44;97706.72;;;-0.49;100.00
77431;BME280;66498;48.564;19.272;2023-11-22T07:27:11;97715.25;;;-0.31;100.00
77431;BME280;66498;48.564;19.272;2023-11-22T07:29:40;97717.81;;;0.05;100.00
77431;BME280;66498;48.564;19.272;2023-11-22T07:32:06;97716.00;;;-0.03;100.00
77431;BME280;66498;48.564;19.272;2023-11-22T07:34:34;97718.38;;;-0.09;100.00
77431;BME280;66498;48.564;19.272;2023-11-22T07:37:02;97719.22;;;0.17;100.00
77431;BME280;66498;48.564;19.272;2023-11-22T07:39:28;97716.38;;;0.29;100.00
77431;BME280;66498;48.564;19.272;2023-11-22T07:41:54;97713.34;;;-0.11;100.00
77431;BME280;66498;48.564;19.272;2023-11-22T07:44:24;97718.78;;;0.04;100.00
77431;BME280;66498;48.564;19.272;2023-11-22T07:46:50;97721.50;;;0.20;100.00
77431;BME280;66498;48.564;19.272;2023-11-22T07:49:22;97715.63;;;-0.08;100.00
77431;BME280;66498;48.564;19.272;2023-11-22T07:51:47;97714.25;;;-0.20;100.00
77431;BME280;66498;48.564;19.272;2023-11-22T07:54:19;97713.81;;;-0.33;100.00
77431;BME280;66498;48.564;19.272;2023-11-22T07:56:48;97725.38;;;-0.37;100.00
77431;BME280;66498;48.564;19.272;2023-11-22T07:59:13;97729.53;;;0.17;100.00
77431;BME280;66498;48.564;19.272;2023-11-22T08:01:42;97739.50;;;0.12;100.00
77431;BME280;66498;48.564;19.272;2023-11-22T08:04:09;97737.22;;;-0.09;100.00
77431;BME280;66498;48.564;19.272;2023-11-22T08:06:35;97744.22;;;-0.01;100.00
77431;BME280;66498;48.564;19.272;2023-11-22T08:09:01;97750.19;;;-0.01;100.00
77431;BME280;66498;48.564;19.272;2023-11-22T08:11:32;97758.41;;;-0.23;100.00
77431;BME280;66498;48.564;19.272;2023-11-22T08:13:58;97767.38;;;-0.45;100.00
77431;BME280;66498;48.564;19.272;2023-11-22T08:16:25;97774.16;;;-0.72;100.00
77431;BME280;66498;48.564;19.272;2023-11-22T08:18:51;97764.31;;;-0.58;100.00
77431;BME280;66498;48.564;19.272;2023-11-22T08:21:17;97767.00;;;-0.50;100.00
77431;BME280;66498;48.564;19.272;2023-11-22T08:23:48;97776.06;;;-0.28;100.00
77431;BME280;66498;48.564;19.272;2023-11-22T08:26:14;97771.88;;;-0.47;100.00
77431;BME280;66498;48.564;19.272;2023-11-22T08:28:40;97774.81;;;-0.42;100.00
77431;BME280;66498;48.564;19.272;2023-11-22T08:31:06;97780.66;;;-0.22;100.00
77431;BME280;66498;48.564;19.272;2023-11-22T08:33:37;97785.38;;;-0.17;100.00
77431;BME280;66498;48.564;19.272;2023-11-22T08:36:05;97790.50;;;-0.35;100.00
77431;BME280;66498;48.564;19.272;2023-11-22T08:38:31;97790.75;;;-0.11;100.00
77431;BME280;66498;48.564;19.272;2023-11-22T08:41:03;97805.13;;;-0.26;100.00
77431;BME280;66498;48.564;19.272;2023-11-22T08:43:31;97801.94;;;-0.65;100.00
77431;BME280;66498;48.564;19.272;2023-11-22T08:45:58;97801.16;;;-0.66;100.00
77431;BME280;66498;48.564;19.272;2023-11-22T08:48:24;97808.69;;;-0.82;100.00
77431;BME280;66498;48.564;19.272;2023-11-22T08:50:50;97811.53;;;-0.85;100.00
77431;BME280;66498;48.564;19.272;2023-11-22T08:53:15;97806.19;;;-0.64;100.00
77431;BME280;66498;48.564;19.272;2023-11-22T08:55:43;97806.75;;;-0.25;100.00
77431;BME280;66498;48.564;19.272;2023-11-22T08:58:10;97799.06;;;-0.35;100.00
77431;BME280;66498;48.564;19.272;2023-11-22T09:00:36;97804.63;;;-0.12;100.00
77431;BME280;66498;48.564;19.272;2023-11-22T09:03:01;97811.31;;;-0.01;100.00
77431;BME280;66498;48.564;19.272;2023-11-22T09:05:28;97808.97;;;0.06;100.00
77431;BME280;66498;48.564;19.272;2023-11-22T09:07:54;97811.63;;;0.14;100.00
77431;BME280;66498;48.564;19.272;2023-11-22T09:10:24;97813.53;;;0.30;100.00
77431;BME280;66498;48.564;19.272;2023-11-22T09:12:49;97819.78;;;0.27;100.00
77431;BME280;66498;48.564;19.272;2023-11-22T09:15:16;97819.91;;;0.17;100.00
77431;BME280;66498;48.564;19.272;2023-11-22T09:17:44;97814.19;;;0.32;100.00
77431;BME280;66498;48.564;19.272;2023-11-22T09:20:15;97822.59;;;0.52;100.00
77431;BME280;66498;48.564;19.272;2023-11-22T09:22:43;97814.94;;;0.24;100.00
77431;BME280;66498;48.564;19.272;2023-11-22T09:25:17;97826.06;;;0.42;100.00
77431;BME280;66498;48.564;19.272;2023-11-22T09:27:45;97831.69;;;0.64;100.00
77431;BME280;66498;48.564;19.272;2023-11-22T09:30:24;97834.25;;;0.38;100.00
77431;BME280;66498;48.564;19.272;2023-11-22T09:35:30;97831.22;;;0.42;100.00
77431;BME280;66498;48.564;19.272;2023-11-22T09:37:59;97831.94;;;0.53;100.00
77431;BME280;66498;48.564;19.272;2023-11-22T09:40:26;97835.56;;;0.86;100.00
77431;BME280;66498;48.564;19.272;2023-11-22T09:42:58;97844.06;;;1.04;100.00
77431;BME280;66498;48.564;19.272;2023-11-22T09:45:23;97835.81;;;1.01;100.00
77431;BME280;66498;48.564;19.272;2023-11-22T09:47:50;97827.16;;;1.18;100.00
77431;BME280;66498;48.564;19.272;2023-11-22T09:50:29;97819.47;;;1.00;100.00
77431;BME280;66498;48.564;19.272;2023-11-22T09:53:00;97815.09;;;0.92;100.00
77431;BME280;66498;48.564;19.272;2023-11-22T09:55:28;97806.19;;;0.95;100.00
77431;BME280;66498;48.564;19.272;2023-11-22T09:57:58;97814.97;;;1.02;100.00
77431;BME280;66498;48.564;19.272;2023-11-22T10:00:27;97813.91;;;0.87;100.00
77431;BME280;66498;48.564;19.272;2023-11-22T10:02:53;97811.06;;;0.98;100.00
77431;BME280;66498;48.564;19.272;2023-11-22T10:05:19;97815.59;;;0.96;100.00
77431;BME280;66498;48.564;19.272;2023-11-22T10:07:47;97814.13;;;1.28;100.00
77431;BME280;66498;48.564;19.272;2023-11-22T10:10:14;97812.00;;;1.23;100.00
77431;BME280;66498;48.564;19.272;2023-11-22T10:12:42;97817.00;;;1.25;100.00
77431;BME280;66498;48.564;19.272;2023-11-22T10:15:12;97820.69;;;0.88;100.00
77431;BME280;66498;48.564;19.272;2023-11-22T10:17:37;97813.63;;;1.32;100.00
77431;BME280;66498;48.564;19.272;2023-11-22T10:20:03;97811.94;;;1.15;100.00
77431;BME280;66498;48.564;19.272;2023-11-22T10:22:29;97814.44;;;1.67;100.00
77431;BME280;66498;48.564;19.272;2023-11-22T10:24:58;97817.59;;;1.53;100.00
77431;BME280;66498;48.564;19.272;2023-11-22T10:27:26;97810.06;;;1.76;100.00
77431;BME280;66498;48.564;19.272;2023-11-22T10:29:52;97810.34;;;1.56;100.00
77431;BME280;66498;48.564;19.272;2023-11-22T10:32:17;97811.03;;;1.75;100.00
77431;BME280;66498;48.564;19.272;2023-11-22T10:34:44;97822.16;;;1.59;100.00
77431;BME280;66498;48.564;19.272;2023-11-22T10:37:10;97822.88;;;1.77;100.00
77431;BME280;66498;48.564;19.272;2023-11-22T10:39:35;97827.31;;;1.59;100.00
77431;BME280;66498;48.564;19.272;2023-11-22T10:42:05;97845.19;;;1.78;100.00
77431;BME280;66498;48.564;19.272;2023-11-22T10:44:33;97842.78;;;1.85;100.00
77431;BME280;66498;48.564;19.272;2023-11-22T10:47:00;97847.50;;;2.06;100.00
77431;BME280;66498;48.564;19.272;2023-11-22T10:49:26;97839.88;;;1.96;100.00
77431;BME280;66498;48.564;19.272;2023-11-22T10:51:52;97854.31;;;2.15;100.00
77431;BME280;66498;48.564;19.272;2023-11-22T10:54:20;97847.69;;;2.29;100.00
77431;BME280;66498;48.564;19.272;2023-11-22T10:56:55;97850.44;;;2.27;100.00
77431;BME280;66498;48.564;19.272;2023-11-22T10:59:22;97857.53;;;2.17;100.00
77431;BME280;66498;48.564;19.272;2023-11-22T11:01:51;97866.06;;;1.93;100.00
77431;BME280;66498;48.564;19.272;2023-11-22T11:04:29;97869.22;;;2.21;100.00
77431;BME280;66498;48.564;19.272;2023-11-22T11:07:00;97867.03;;;1.84;100.00
77431;BME280;66498;48.564;19.272;2023-11-22T11:09:27;97869.22;;;2.54;100.00
77431;BME280;66498;48.564;19.272;2023-11-22T11:11:56;97861.28;;;2.47;100.00
77431;BME280;66498;48.564;19.272;2023-11-22T11:14:23;97862.25;;;2.54;100.00
77431;BME280;66498;48.564;19.272;2023-11-22T11:16:49;97875.69;;;2.17;100.00
77431;BME280;66498;48.564;19.272;2023-11-22T11:19:19;97871.13;;;2.03;100.00
77431;BME280;66498;48.564;19.272;2023-11-22T11:21:49;97875.84;;;2.16;100.00
77431;BME280;66498;48.564;19.272;2023-11-22T11:24:15;97877.00;;;2.21;100.00
77431;BME280;66498;48.564;19.272;2023-11-22T11:26:47;97865.50;;;2.32;100.00
77431;BME280;66498;48.564;19.272;2023-11-22T11:29:33;97860.97;;;2.67;100.00
77431;BME280;66498;48.564;19.272;2023-11-22T11:31:59;97863.72;;;2.41;100.00
77431;BME280;66498;48.564;19.272;2023-11-22T11:34:27;97863.34;;;3.09;100.00
77431;BME280;66498;48.564;19.272;2023-11-22T11:36:55;97872.97;;;2.92;100.00
77431;BME280;66498;48.564;19.272;2023-11-22T11:39:26;97868.25;;;2.71;100.00
77431;BME280;66498;48.564;19.272;2023-11-22T11:42:07;97867.09;;;3.06;100.00
77431;BME280;66498;48.564;19.272;2023-11-22T11:44:33;97879.19;;;2.00;100.00
77431;BME280;66498;48.564;19.272;2023-11-22T11:46:58;97883.16;;;2.94;100.00
77431;BME280;66498;48.564;19.272;2023-11-22T11:49:24;97873.44;;;2.96;100.00
77431;BME280;66498;48.564;19.272;2023-11-22T11:51:50;97881.03;;;3.05;100.00
77431;BME280;66498;48.564;19.272;2023-11-22T11:54:16;97881.53;;;3.01;100.00
77431;BME280;66498;48.564;19.272;2023-11-22T11:56:41;97885.38;;;3.21;100.00
77431;BME280;66498;48.564;19.272;2023-11-22T11:59:08;97874.56;;;2.85;100.00
77431;BME280;66498;48.564;19.272;2023-11-22T12:01:35;97865.19;;;2.92;100.00
77431;BME280;66498;48.564;19.272;2023-11-22T12:04:01;97861.13;;;2.90;100.00
77431;BME280;66498;48.564;19.272;2023-11-22T12:06:28;97856.47;;;3.41;100.00
77431;BME280;66498;48.564;19.272;2023-11-22T12:08:54;97862.59;;;3.48;100.00
77431;BME280;66498;48.564;19.272;2023-11-22T12:11:20;97863.47;;;3.24;100.00
77431;BME280;66498;48.564;19.272;2023-11-22T12:13:45;97864.94;;;3.18;100.00
77431;BME280;66498;48.564;19.272;2023-11-22T12:16:19;97857.47;;;3.31;100.00
77431;BME280;66498;48.564;19.272;2023-11-22T12:18:48;97861.47;;;3.42;100.00
77431;BME280;66498;48.564;19.272;2023-11-22T12:21:15;97853.91;;;3.72;100.00
77431;BME280;66498;48.564;19.272;2023-11-22T12:23:42;97853.47;;;4.14;100.00
77431;BME280;66498;48.564;19.272;2023-11-22T12:26:20;97854.59;;;4.20;100.00
77431;BME280;66498;48.564;19.272;2023-11-22T12:28:47;97861.00;;;4.32;100.00
77431;BME280;66498;48.564;19.272;2023-11-22T12:31:14;97861.13;;;4.16;100.00
77431;BME280;66498;48.564;19.272;2023-11-22T12:33:41;97868.22;;;4.22;100.00
77431;BME280;66498;48.564;19.272;2023-11-22T12:36:08;97872.88;;;4.03;100.00
77431;BME280;66498;48.564;19.272;2023-11-22T12:38:42;97872.19;;;4.10;100.00
77431;BME280;66498;48.564;19.272;2023-11-22T12:41:08;97879.66;;;4.13;100.00
77431;BME280;66498;48.564;19.272;2023-11-22T12:43:34;97875.16;;;4.30;100.00
77431;BME280;66498;48.564;19.272;2023-11-22T12:46:04;97877.34;;;5.02;100.00